Time;durP1;ratioP1;P1;durP2;ratioP2;P2;SDS_P1;SDS_P2;PMS_P1;PMS_P2;Temp;Humidity;BMP_temperature;BMP_pressure;BME280_temperature;BME280_humidity;BME280_pressure;Samples;Min_cycle;Max_cycle;Signal;HPM_P1;HPM_P2
2023/03/06 00:01:40;;;;;;;23.73;15.88;;;5.40;99.90;;;;;;5095847;28;20524;-61
2023/03/06 00:04:07;;;;;;;19.02;14.52;;;5.40;99.90;;;;;;5095754;28;20531;-60
2023/03/06 00:06:32;;;;;;;19.48;17.42;;;5.40;99.90;;;;;;5095627;28;20638;-60
2023/03/06 00:08:58;;;;;;;20.90;16.33;;;5.40;99.90;;;;;;5095723;28;20272;-61
2023/03/06 00:11:24;;;;;;;20.13;15.43;;;5.40;99.90;;;;;;5095681;28;20197;-60
2023/03/06 00:13:51;;;;;;;21.45;16.17;;;5.40;99.90;;;;;;5095633;28;20185;-60
2023/03/06 00:16:17;;;;;;;20.13;16.63;;;5.40;99.90;;;;;;5095429;28;20192;-60
2023/03/06 00:18:43;;;;;;;20.52;16.58;;;5.40;99.90;;;;;;5095273;28;20564;-60
2023/03/06 00:21:09;;;;;;;21.55;16.55;;;5.30;99.90;;;;;;5095194;28;20188;-60
2023/03/06 00:23:35;;;;;;;21.20;15.82;;;5.30;99.90;;;;;;5095607;28;20233;-60
2023/03/06 00:26:01;;;;;;;20.13;15.50;;;5.30;99.90;;;;;;5095630;28;20256;-60
2023/03/06 00:28:29;;;;;;;22.02;16.55;;;5.30;99.90;;;;;;5095641;28;20655;-60
2023/03/06 00:30:55;;;;;;;21.67;17.17;;;5.30;99.90;;;;;;5095154;28;20212;-60
2023/03/06 00:33:21;;;;;;;21.65;16.95;;;5.30;99.90;;;;;;5095072;28;20254;-60
2023/03/06 00:35:46;;;;;;;20.02;16.13;;;5.20;99.90;;;;;;5093589;28;20188;-60
2023/03/06 00:38:12;;;;;;;22.05;16.15;;;5.20;99.90;;;;;;5094610;28;20219;-60
2023/03/06 00:40:38;;;;;;;22.83;16.77;;;5.20;99.90;;;;;;5094861;28;20622;-60
2023/03/06 00:43:03;;;;;;;22.33;17.10;;;5.10;99.90;;;;;;5095051;28;20189;-60
2023/03/06 00:45:29;;;;;;;21.52;16.42;;;5.00;99.90;;;;;;5094823;28;20192;-60
2023/03/06 00:47:55;;;;;;;22.10;17.52;;;4.90;99.90;;;;;;5094778;28;20177;-61
2023/03/06 00:50:20;;;;;;;21.80;16.73;;;4.90;99.90;;;;;;5094690;28;20648;-60
2023/03/06 00:52:46;;;;;;;23.25;17.85;;;4.90;99.90;;;;;;5095238;28;20636;-60
2023/03/06 00:55:12;;;;;;;24.15;18.25;;;4.80;99.90;;;;;;5094868;28;20181;-60
2023/03/06 00:57:37;;;;;;;26.00;18.08;;;4.90;99.90;;;;;;5093337;28;20185;-60
2023/03/06 01:00:04;;;;;;;25.15;17.60;;;4.80;99.90;;;;;;5094625;28;20193;-60
2023/03/06 01:02:30;;;;;;;23.48;17.83;;;4.80;99.90;;;;;;5094446;28;20178;-60
2023/03/06 01:04:56;;;;;;;25.85;18.85;;;4.80;99.90;;;;;;5094579;28;20188;-60
2023/03/06 01:07:22;;;;;;;23.60;18.77;;;4.60;99.90;;;;;;5094657;28;20173;-60
2023/03/06 01:09:47;;;;;;;25.65;19.67;;;4.70;99.90;;;;;;5094633;28;20196;-60
2023/03/06 01:12:13;;;;;;;25.52;18.52;;;4.60;99.90;;;;;;5094639;28;20676;-60
2023/03/06 01:14:39;;;;;;;25.92;19.08;;;4.60;99.90;;;;;;5094508;28;20215;-60
2023/03/06 01:17:04;;;;;;;24.45;18.75;;;4.50;99.90;;;;;;5094342;28;20614;-61
2023/03/06 01:19:30;;;;;;;26.48;19.48;;;4.50;99.90;;;;;;5094148;28;20209;-60
2023/03/06 01:21:56;;;;;;;23.77;18.50;;;4.50;99.90;;;;;;5092557;28;20236;-60
2023/03/06 01:24:24;;;;;;;24.50;18.80;;;4.50;99.90;;;;;;5094183;28;20198;-60
2023/03/06 01:26:50;;;;;;;23.40;18.00;;;4.50;99.90;;;;;;5094097;28;20280;-60
2023/03/06 01:29:16;;;;;;;25.55;20.42;;;4.40;99.90;;;;;;5094009;28;20688;-61
2023/03/06 01:31:42;;;;;;;26.65;18.65;;;4.40;99.90;;;;;;5094122;28;20178;-61
2023/03/06 01:34:07;;;;;;;25.40;18.77;;;4.40;99.90;;;;;;5093878;28;20177;-60
2023/03/06 01:36:33;;;;;;;25.23;18.92;;;4.40;99.90;;;;;;5093913;28;20209;-60
2023/03/06 01:38:59;;;;;;;26.17;23.58;;;4.50;99.90;;;;;;5093834;28;20659;-60
2023/03/06 01:41:25;;;;;;;28.52;20.63;;;4.50;99.90;;;;;;5094039;28;20183;-60
2023/03/06 01:43:50;;;;;;;26.88;20.13;;;4.60;99.90;;;;;;5093944;28;20173;-60
2023/03/06 01:46:29;;;;;;;26.65;20.40;;;4.50;99.90;;;;;;5093740;28;20226;-60
2023/03/06 01:49:07;;;;;;;28.02;19.75;;;4.60;99.90;;;;;;5092909;28;20631;-60
2023/03/06 01:51:40;;;;;;;28.17;19.92;;;4.60;99.90;;;;;;5093851;28;20168;-60
2023/03/06 01:54:16;;;;;;;27.75;20.08;;;4.70;99.90;;;;;;5093952;28;20173;-60
2023/03/06 01:56:43;;;;;;;32.85;21.80;;;4.60;99.90;;;;;;5093688;28;20169;-60
2023/03/06 01:59:10;;;;;;;29.65;21.75;;;4.60;99.90;;;;;;5093531;28;20214;-60
2023/03/06 02:01:38;;;;;;;27.40;21.48;;;4.70;99.90;;;;;;5093637;28;20242;-60
2023/03/06 02:04:04;;;;;;;30.67;21.63;;;4.70;99.90;;;;;;5093491;28;20635;-61
2023/03/06 02:06:34;;;;;;;30.70;20.70;;;4.60;99.90;;;;;;5092503;28;20180;-60
2023/03/06 02:09:02;;;;;;;33.25;22.55;;;4.60;99.90;;;;;;5093598;28;20184;-60
2023/03/06 02:11:28;;;;;;;29.90;26.70;;;4.60;99.90;;;;;;5093135;28;20645;-61
2023/03/06 02:13:54;;;;;;;32.53;22.27;;;4.60;99.90;;;;;;5093564;28;20172;-60
2023/03/06 02:16:25;;;;;;;30.90;27.60;;;4.60;99.90;;;;;;5093762;28;20185;-60
2023/03/06 02:18:52;;;;;;;31.63;22.48;;;4.60;99.90;;;;;;5093321;28;20215;-60
2023/03/06 02:21:23;;;;;;;34.28;22.75;;;4.60;99.90;;;;;;5093318;28;20172;-60
2023/03/06 02:24:32;;;;;;;33.15;24.40;;;4.60;99.90;;;;;;5093186;28;20232;-60
2023/03/06 02:26:59;;;;;;;30.85;22.65;;;4.60;99.90;;;;;;5093451;28;20257;-60
2023/03/06 02:29:29;;;;;;;31.15;23.00;;;4.60;99.90;;;;;;5093263;28;20202;-59
2023/03/06 02:31:55;;;;;;;32.60;22.95;;;4.60;99.90;;;;;;5093123;28;20189;-60
2023/03/06 02:34:21;;;;;;;29.33;21.30;;;4.50;99.90;;;;;;5093219;28;20205;-60
2023/03/06 02:36:58;;;;;;;31.65;23.23;;;4.50;99.90;;;;;;5093208;28;20201;-60
2023/03/06 02:39:27;;;;;;;32.53;23.25;;;4.50;99.90;;;;;;5093156;28;20205;-60
2023/03/06 02:41:53;;;;;;;31.88;22.67;;;4.60;99.90;;;;;;5093127;28;20635;-61
2023/03/06 02:44:19;;;;;;;31.42;23.42;;;4.50;99.90;;;;;;5093079;28;20223;-60
2023/03/06 02:46:44;;;;;;;32.80;23.55;;;4.50;99.90;;;;;;5093034;28;20570;-60
2023/03/06 02:49:10;;;;;;;34.40;23.85;;;4.60;99.90;;;;;;5092964;28;20183;-60
2023/03/06 02:51:36;;;;;;;34.33;23.73;;;4.50;99.90;;;;;;5093137;28;20651;-60
2023/03/06 02:54:01;;;;;;;33.72;24.73;;;4.50;99.90;;;;;;5093342;28;20208;-60
2023/03/06 02:56:27;;;;;;;31.73;23.92;;;4.60;99.90;;;;;;5093551;28;20177;-60
2023/03/06 02:58:52;;;;;;;33.45;24.63;;;4.60;99.90;;;;;;5093006;28;20201;-61
2023/03/06 03:01:18;;;;;;;31.63;24.00;;;4.60;99.90;;;;;;5096695;28;20199;-60
2023/03/06 03:03:44;;;;;;;34.58;23.75;;;4.60;99.90;;;;;;5096855;28;20169;-60
2023/03/06 03:06:10;;;;;;;33.47;25.45;;;4.60;99.90;;;;;;5097094;28;20634;-60
2023/03/06 03:08:36;;;;;;;33.53;25.10;;;4.70;99.90;;;;;;5096976;28;20177;-60
2023/03/06 03:11:03;;;;;;;31.15;22.77;;;4.60;99.90;;;;;;5095926;28;20260;-60
2023/03/06 03:13:28;;;;;;;33.25;24.45;;;4.60;99.90;;;;;;5096850;28;20180;-61
2023/03/06 03:16:03;;;;;;;33.22;25.80;;;4.60;99.90;;;;;;5096598;28;20272;-60
2023/03/06 03:18:29;;;;;;;35.38;22.58;;;4.60;99.90;;;;;;5096925;28;20700;-60
2023/03/06 03:20:55;;;;;;;32.53;23.73;;;4.60;99.90;;;;;;5096832;28;20187;-60
2023/03/06 03:23:21;;;;;;;34.05;23.27;;;4.60;99.90;;;;;;5096454;28;20235;-60
2023/03/06 03:25:47;;;;;;;33.58;24.20;;;4.60;99.90;;;;;;5096569;28;20176;-60
2023/03/06 03:28:12;;;;;;;33.45;23.00;;;4.60;99.90;;;;;;5096429;28;20185;-60
2023/03/06 03:30:39;;;;;;;35.45;24.48;;;4.60;99.90;;;;;;5096454;28;20177;-60
2023/03/06 03:33:05;;;;;;;32.08;28.77;;;4.70;99.90;;;;;;5096176;28;20180;-60
2023/03/06 03:35:31;;;;;;;32.55;27.77;;;4.60;99.90;;;;;;5096545;28;20173;-60
2023/03/06 03:37:57;;;;;;;32.70;23.10;;;4.60;99.90;;;;;;5096385;28;20201;-60
2023/03/06 03:40:22;;;;;;;32.25;23.88;;;4.60;99.90;;;;;;5096533;28;20275;-60
2023/03/06 03:42:48;;;;;;;34.97;24.48;;;4.60;99.90;;;;;;5096261;28;20173;-60
2023/03/06 03:45:14;;;;;;;32.72;22.60;;;4.60;99.90;;;;;;5096159;28;20173;-60
2023/03/06 03:47:39;;;;;;;35.25;24.80;;;4.60;99.90;;;;;;5095940;28;20184;-60
2023/03/06 03:50:06;;;;;;;34.85;24.02;;;4.60;99.90;;;;;;5096167;28;20223;-61
2023/03/06 03:52:32;;;;;;;36.20;24.33;;;4.60;99.90;;;;;;5096069;28;20189;-60
2023/03/06 03:54:58;;;;;;;35.80;25.35;;;4.40;99.90;;;;;;5096252;28;20188;-60
2023/03/06 03:57:23;;;;;;;34.05;23.77;;;4.40;99.90;;;;;;5095950;28;20200;-60
2023/03/06 03:59:49;;;;;;;34.92;23.42;;;4.30;99.90;;;;;;5095724;28;20206;-60
2023/03/06 04:02:15;;;;;;;38.30;25.67;;;4.30;99.90;;;;;;5095682;28;20632;-60
2023/03/06 04:04:41;;;;;;;33.50;24.00;;;4.30;99.90;;;;;;5095610;28;20634;-60
2023/03/06 04:07:08;;;;;;;35.30;24.95;;;4.30;99.90;;;;;;5095848;28;20181;-60
2023/03/06 04:09:34;;;;;;;37.88;24.98;;;4.30;99.90;;;;;;5095921;28;20208;-60
2023/03/06 04:12:00;;;;;;;38.33;25.20;;;4.30;99.90;;;;;;5094749;28;20632;-60
2023/03/06 04:14:25;;;;;;;36.92;25.52;;;4.20;99.90;;;;;;5095538;28;20294;-60
2023/03/06 04:16:51;;;;;;;33.90;23.95;;;4.10;99.90;;;;;;5094546;28;20186;-60
2023/03/06 04:19:17;;;;;;;34.60;24.15;;;4.10;99.90;;;;;;5095649;28;20671;-60
2023/03/06 04:21:42;;;;;;;35.97;25.20;;;4.10;99.90;;;;;;5095365;28;20182;-60
2023/03/06 04:24:08;;;;;;;39.20;24.15;;;4.00;99.90;;;;;;5095667;28;20208;-60
2023/03/06 04:26:34;;;;;;;33.05;22.42;;;4.00;99.90;;;;;;5095534;28;20173;-60
2023/03/06 04:29:00;;;;;;;35.28;23.15;;;4.10;99.90;;;;;;5095290;28;20201;-60
2023/03/06 04:31:26;;;;;;;39.10;25.33;;;4.10;99.90;;;;;;5095451;28;20569;-60
2023/03/06 04:33:52;;;;;;;39.83;24.77;;;4.10;99.90;;;;;;5095476;28;20195;-61
2023/03/06 04:36:32;;;;;;;36.55;24.80;;;4.10;99.90;;;;;;5095403;28;20260;-60
2023/03/06 04:38:58;;;;;;;35.22;23.10;;;4.00;99.90;;;;;;5094831;28;20217;-60
2023/03/06 04:41:24;;;;;;;34.35;22.80;;;4.00;99.90;;;;;;5095061;28;20632;-60
2023/03/06 04:43:50;;;;;;;34.20;24.27;;;4.00;99.90;;;;;;5094793;28;20190;-60
2023/03/06 04:46:16;;;;;;;36.63;25.13;;;4.10;99.90;;;;;;5095128;28;20294;-60
2023/03/06 04:48:41;;;;;;;35.95;25.98;;;4.00;99.90;;;;;;5094869;28;20207;-60
2023/03/06 04:51:09;;;;;;;38.05;25.65;;;4.00;99.90;;;;;;5094895;28;20532;-60
2023/03/06 04:53:35;;;;;;;37.28;24.08;;;4.00;99.90;;;;;;5094882;28;20250;-60
2023/03/06 04:56:00;;;;;;;35.75;24.13;;;4.00;99.90;;;;;;5094750;28;20536;-60
2023/03/06 04:58:26;;;;;;;37.47;23.85;;;4.00;99.90;;;;;;5093213;28;20205;-60
2023/03/06 05:00:52;;;;;;;35.35;23.92;;;4.00;99.90;;;;;;5094732;28;20185;-61
2023/03/06 05:03:17;;;;;;;35.97;23.58;;;3.90;99.90;;;;;;5094922;28;20177;-60
2023/03/06 05:05:43;;;;;;;33.75;24.60;;;3.90;99.90;;;;;;5094637;28;20255;-60
2023/03/06 05:08:14;;;;;;;31.88;22.65;;;3.80;99.90;;;;;;5094498;28;20209;-60
2023/03/06 05:10:40;;;;;;;32.92;23.40;;;3.70;99.90;;;;;;5094624;28;20302;-60
2023/03/06 05:13:06;;;;;;;32.63;22.90;;;3.70;99.90;;;;;;5094339;28;20181;-60
2023/03/06 05:15:32;;;;;;;36.42;22.63;;;3.60;99.90;;;;;;5094675;28;20651;-60
2023/03/06 05:17:58;;;;;;;35.80;23.88;;;3.60;99.90;;;;;;5094451;28;20257;-60
2023/03/06 05:20:23;;;;;;;33.78;30.08;;;3.50;99.90;;;;;;5094394;28;20185;-60
2023/03/06 05:22:49;;;;;;;34.70;23.40;;;3.40;99.90;;;;;;5093948;28;20369;-60
2023/03/06 05:25:15;;;;;;;33.35;29.27;;;3.30;99.90;;;;;;5094183;28;20534;-60
2023/03/06 05:27:41;;;;;;;37.05;24.73;;;3.30;99.90;;;;;;5094001;28;20268;-61
2023/03/06 05:30:10;;;;;;;36.22;23.60;;;3.20;99.90;;;;;;5094261;28;20620;-60
2023/03/06 05:32:35;;;;;;;37.67;24.50;;;3.20;99.90;;;;;;5094039;28;20201;-60
2023/03/06 05:35:01;;;;;;;38.40;24.63;;;3.10;99.90;;;;;;5094098;28;20213;-60
2023/03/06 05:37:27;;;;;;;36.67;23.90;;;3.10;99.90;;;;;;5094088;28;20177;-60
2023/03/06 05:39:52;;;;;;;38.97;25.80;;;3.10;99.90;;;;;;5092649;28;20218;-61
2023/03/06 05:42:18;;;;;;;39.63;25.57;;;3.00;99.90;;;;;;5093793;28;20203;-60
2023/03/06 05:44:44;;;;;;;39.33;25.27;;;3.10;99.90;;;;;;5094054;28;20662;-60
2023/03/06 05:47:10;;;;;;;39.97;26.30;;;3.10;99.90;;;;;;5093979;28;20181;-60
2023/03/06 05:49:37;;;;;;;41.15;26.35;;;3.10;99.90;;;;;;5093794;28;20317;-60
2023/03/06 05:52:03;;;;;;;36.80;24.83;;;3.00;99.90;;;;;;5092505;28;20201;-60
2023/03/06 05:54:33;;;;;;;40.78;24.73;;;3.10;99.90;;;;;;5093646;28;20185;-60
2023/03/06 05:57:00;;;;;;;41.45;24.75;;;3.10;99.90;;;;;;5093624;28;20213;-60
2023/03/06 05:59:27;;;;;;;42.30;25.20;;;3.10;99.90;;;;;;5093682;28;20367;-60
2023/03/06 06:01:56;;;;;;;45.50;26.35;;;3.00;99.90;;;;;;5093664;28;20173;-60
2023/03/06 06:04:23;;;;;;;42.30;26.65;;;3.00;99.90;;;;;;5093550;28;20235;-60
2023/03/06 06:06:58;;;;;;;40.47;25.80;;;2.90;99.90;;;;;;5093420;28;20204;-60
2023/03/06 06:09:24;;;;;;;39.67;24.90;;;2.90;99.90;;;;;;5093442;28;20203;-60
2023/03/06 06:11:52;;;;;;;43.53;26.40;;;2.90;99.90;;;;;;5093613;28;20175;-60
2023/03/06 06:14:18;;;;;;;40.97;26.37;;;2.90;99.90;;;;;;5093485;28;20256;-60
2023/03/06 06:16:44;;;;;;;41.75;25.38;;;3.00;99.90;;;;;;5093280;28;20208;-60
2023/03/06 06:19:14;;;;;;;44.30;28.25;;;3.00;99.90;;;;;;5093339;28;20201;-60
2023/03/06 06:21:39;;;;;;;42.45;27.05;;;3.10;99.90;;;;;;5093077;28;20596;-61
2023/03/06 06:24:05;;;;;;;41.30;27.33;;;3.20;99.90;;;;;;5093816;28;20255;-60
2023/03/06 06:26:31;;;;;;;40.67;26.48;;;3.20;99.90;;;;;;5093412;28;20523;-60
2023/03/06 06:28:57;;;;;;;41.33;25.17;;;3.40;99.90;;;;;;5093327;28;20671;-60
2023/03/06 06:31:22;;;;;;;45.35;28.67;;;3.40;99.90;;;;;;5093499;28;20632;-60
2023/03/06 06:33:48;;;;;;;42.57;27.53;;;3.40;99.90;;;;;;5093492;28;20678;-59
2023/03/06 06:36:19;;;;;;;45.00;28.25;;;3.50;99.90;;;;;;5099673;28;20697;-59
2023/03/06 06:38:44;;;;;;;43.00;27.50;;;3.50;99.90;;;;;;5099748;28;20216;-60
2023/03/06 06:41:10;;;;;;;46.00;27.80;;;3.50;99.90;;;;;;5100031;28;20295;-60
2023/03/06 06:43:36;;;;;;;45.33;27.88;;;3.70;99.90;;;;;;5100061;28;20181;-60
2023/03/06 06:46:01;;;;;;;44.55;27.58;;;3.80;99.90;;;;;;5099921;28;20640;-59
2023/03/06 06:48:27;;;;;;;45.10;28.63;;;3.80;99.90;;;;;;5099930;28;20187;-60
2023/03/06 06:50:57;;;;;;;42.10;25.92;;;3.90;99.90;;;;;;5099815;28;20199;-60
2023/03/06 06:53:23;;;;;;;43.35;28.42;;;3.80;99.90;;;;;;5100216;28;20292;-60
2023/03/06 06:55:49;;;;;;;43.47;28.98;;;3.70;99.90;;;;;;5100165;28;20655;-60
2023/03/06 06:58:15;;;;;;;40.50;28.17;;;3.60;99.90;;;;;;5099622;28;20213;-59
2023/03/06 07:00:41;;;;;;;41.53;26.83;;;3.60;99.90;;;;;;5099708;28;20169;-60
2023/03/06 07:03:07;;;;;;;43.88;27.13;;;3.50;99.90;;;;;;5099662;28;20185;-60
2023/03/06 07:05:33;;;;;;;41.08;35.65;;;3.60;99.90;;;;;;5099491;28;20181;-60
2023/03/06 07:07:59;;;;;;;43.47;27.55;;;3.60;99.90;;;;;;5099697;28;20527;-60
2023/03/06 07:10:25;;;;;;;42.75;34.58;;;3.50;99.90;;;;;;5099704;28;20177;-60
2023/03/06 07:12:50;;;;;;;43.90;26.80;;;3.60;99.90;;;;;;5099673;28;20179;-60
2023/03/06 07:15:16;;;;;;;39.90;35.47;;;3.60;99.90;;;;;;5099781;28;20256;-60
2023/03/06 07:17:42;;;;;;;47.30;28.50;;;3.80;99.90;;;;;;5099667;28;20189;-60
2023/03/06 07:20:09;;;;;;;42.72;28.48;;;3.80;99.90;;;;;;5099405;28;20170;-60
2023/03/06 07:22:36;;;;;;;48.92;28.75;;;3.90;99.90;;;;;;5099447;28;20256;-60
2023/03/06 07:25:03;;;;;;;44.75;28.85;;;4.00;99.90;;;;;;5099703;28;20176;-60
2023/03/06 07:27:29;;;;;;;44.45;28.95;;;4.20;99.90;;;;;;5099536;28;20184;-60
2023/03/06 07:29:55;;;;;;;44.38;27.27;;;4.30;99.90;;;;;;5099541;28;20653;-60
2023/03/06 07:32:21;;;;;;;45.25;28.08;;;4.50;99.90;;;;;;5099566;28;20174;-60
2023/03/06 07:34:47;;;;;;;46.58;30.05;;;4.50;99.90;;;;;;5099180;28;20226;-59
2023/03/06 07:37:13;;;;;;;43.00;28.60;;;4.60;99.90;;;;;;5099520;28;20505;-60
2023/03/06 07:39:38;;;;;;;40.40;28.27;;;4.60;99.90;;;;;;5099323;28;20570;-60
2023/03/06 07:42:06;;;;;;;41.28;28.95;;;4.60;99.90;;;;;;5098188;28;20582;-60
2023/03/06 07:44:35;;;;;;;43.30;28.00;;;4.70;99.90;;;;;;5099204;28;20268;-60
2023/03/06 07:47:01;;;;;;;40.80;27.83;;;4.80;99.90;;;;;;5095623;28;20256;-59
2023/03/06 07:49:27;;;;;;;39.63;28.88;;;4.80;99.90;;;;;;5095945;28;20276;-60
2023/03/06 07:51:52;;;;;;;45.30;28.85;;;4.90;99.90;;;;;;5096237;28;20209;-60
2023/03/06 07:54:18;;;;;;;38.97;27.15;;;5.00;99.90;;;;;;5096068;28;20185;-60
2023/03/06 07:56:44;;;;;;;41.63;27.40;;;5.20;99.90;;;;;;5094743;28;20178;-60
2023/03/06 07:59:10;;;;;;;36.90;27.38;;;5.30;99.90;;;;;;5094473;28;20213;-60
2023/03/06 08:01:38;;;;;;;40.60;28.13;;;5.40;99.90;;;;;;5095910;28;20186;-60
2023/03/06 08:04:04;;;;;;;36.35;26.67;;;5.30;99.90;;;;;;5095587;28;20181;-60
2023/03/06 08:06:31;;;;;;;36.17;26.83;;;5.40;99.90;;;;;;5095886;28;20189;-60
2023/03/06 08:08:57;;;;;;;40.17;27.88;;;5.50;99.90;;;;;;5095778;28;20708;-59
2023/03/06 08:11:25;;;;;;;38.03;26.38;;;5.50;99.90;;;;;;5095689;28;20177;-60
2023/03/06 08:13:51;;;;;;;36.67;25.95;;;5.60;99.90;;;;;;5094346;28;20170;-59
2023/03/06 08:16:19;;;;;;;36.47;26.77;;;5.70;99.90;;;;;;5095452;28;20185;-59
2023/03/06 08:18:45;;;;;;;35.15;26.08;;;5.80;99.90;;;;;;5095357;28;20741;-60
2023/03/06 08:21:13;;;;;;;34.63;26.20;;;5.90;99.90;;;;;;5095765;28;20190;-60
2023/03/06 08:23:39;;;;;;;35.13;25.73;;;6.00;99.90;;;;;;5095208;28;20577;-60
2023/03/06 08:26:11;;;;;;;37.85;26.15;;;5.90;99.90;;;;;;5095420;28;20181;-60
2023/03/06 08:28:37;;;;;;;35.30;26.77;;;6.00;99.90;;;;;;5095378;28;20180;-60
2023/03/06 08:31:11;;;;;;;32.88;26.45;;;6.00;99.90;;;;;;5095182;28;20197;-60
2023/03/06 08:33:37;;;;;;;32.88;25.05;;;6.00;99.90;;;;;;5095176;28;20505;-60
2023/03/06 08:36:03;;;;;;;32.25;25.80;;;6.20;99.90;;;;;;5095129;28;20178;-60
2023/03/06 08:38:29;;;;;;;30.88;25.95;;;6.30;99.90;;;;;;5095181;28;20571;-60
2023/03/06 08:40:55;;;;;;;34.35;26.75;;;6.20;99.90;;;;;;5095130;28;20188;-60
2023/03/06 08:43:21;;;;;;;32.22;24.50;;;6.30;99.90;;;;;;5095195;28;20201;-60
2023/03/06 08:45:54;;;;;;;31.17;25.48;;;6.30;99.90;;;;;;5093643;28;20170;-60
2023/03/06 08:48:20;;;;;;;33.75;26.35;;;6.40;99.90;;;;;;5095117;28;20174;-58
2023/03/06 08:50:46;;;;;;;29.70;24.17;;;6.50;99.90;;;;;;5094787;28;20659;-60
2023/03/06 08:53:12;;;;;;;31.45;26.50;;;6.50;99.90;;;;;;5095068;28;20253;-58
2023/03/06 08:55:38;;;;;;;32.65;25.27;;;6.50;99.90;;;;;;5094739;28;20278;-58
2023/03/06 08:58:04;;;;;;;33.25;25.70;;;6.40;99.90;;;;;;5094247;28;20189;-59
2023/03/06 09:00:31;;;;;;;28.95;22.60;;;6.40;99.90;;;;;;5094842;28;20197;-57
2023/03/06 09:02:56;;;;;;;31.10;25.35;;;6.70;99.90;;;;;;5094920;28;20177;-60
2023/03/06 09:05:22;;;;;;;27.98;23.70;;;6.70;99.90;;;;;;5094673;28;20189;-60
2023/03/06 09:07:48;;;;;;;32.17;24.73;;;6.80;99.90;;;;;;5094568;28;20267;-60
2023/03/06 09:10:15;;;;;;;32.53;24.15;;;6.90;99.90;;;;;;5094507;28;20632;-60
2023/03/06 09:12:41;;;;;;;28.17;25.27;;;6.90;99.90;;;;;;5094334;28;20178;-60
2023/03/06 09:15:07;;;;;;;27.85;24.98;;;6.90;99.90;;;;;;5094316;28;20700;-60
2023/03/06 09:17:33;;;;;;;30.42;23.73;;;7.00;99.90;;;;;;5094406;28;20521;-60
2023/03/06 09:19:59;;;;;;;29.63;24.42;;;7.10;99.90;;;;;;5094135;28;20215;-60
2023/03/06 09:22:25;;;;;;;29.77;23.45;;;7.20;99.90;;;;;;5094360;28;20217;-59
2023/03/06 09:24:51;;;;;;;30.13;23.88;;;7.30;99.90;;;;;;5094171;28;20180;-59
2023/03/06 09:27:17;;;;;;;28.20;23.45;;;7.40;99.90;;;;;;5094218;28;20696;-61
2023/03/06 09:29:43;;;;;;;27.13;24.33;;;7.60;99.90;;;;;;5094473;28;20181;-58
2023/03/06 09:32:08;;;;;;;29.63;25.88;;;7.60;99.90;;;;;;5094255;28;20165;-58
2023/03/06 09:34:34;;;;;;;28.17;24.88;;;7.70;99.90;;;;;;5094120;28;20177;-58
2023/03/06 09:37:03;;;;;;;29.67;25.52;;;7.70;99.90;;;;;;5094266;28;20186;-58
2023/03/06 09:39:29;;;;;;;28.98;24.73;;;7.70;99.90;;;;;;5094000;28;20212;-58
2023/03/06 09:41:57;;;;;;;30.60;25.65;;;7.80;99.90;;;;;;5093787;28;20178;-58
2023/03/06 09:44:34;;;;;;;28.13;22.80;;;7.70;99.90;;;;;;5094018;28;20639;-59
2023/03/06 09:47:18;;;;;;;27.73;24.73;;;7.80;99.90;;;;;;5093964;28;20656;-59
2023/03/06 09:50:05;;;;;;;25.30;22.60;;;7.90;99.90;;;;;;5093770;28;20180;-59
2023/03/06 09:53:15;;;;;;;27.08;22.17;;;8.00;99.90;;;;;;5093583;28;20173;-59
2023/03/06 09:55:43;;;;;;;27.38;21.48;;;7.90;99.90;;;;;;5073957;28;20544;-60
2023/03/06 09:58:24;;;;;;;25.65;22.50;;;8.00;99.90;;;;;;5093643;28;20197;-59
2023/03/06 10:00:56;;;;;;;24.60;22.08;;;8.30;99.90;;;;;;5093616;28;20663;-59
2023/03/06 10:03:43;;;;;;;23.23;20.35;;;8.30;99.90;;;;;;5093808;28;20174;-59
2023/03/06 10:06:31;;;;;;;22.52;20.10;;;8.30;99.90;;;;;;5093733;28;20199;-59
2023/03/06 10:09:21;;;;;;;21.98;19.67;;;8.20;99.90;;;;;;5092778;28;20174;-60
2023/03/06 10:12:18;;;;;;;19.70;17.63;;;8.30;99.90;;;;;;5093403;28;20677;-59
2023/03/06 10:14:56;;;;;;;18.27;16.48;;;8.40;99.90;;;;;;5093397;28;20173;-59
2023/03/06 10:17:24;;;;;;;16.30;14.65;;;8.50;99.90;;;;;;5093261;28;20165;-59
2023/03/06 10:19:51;;;;;;;16.45;14.57;;;8.50;99.90;;;;;;5093460;28;20221;-59
2023/03/06 10:22:35;;;;;;;15.48;13.93;;;8.70;99.90;;;;;;5093254;28;20232;-59
2023/03/06 10:25:07;;;;;;;15.73;14.13;;;8.80;99.90;;;;;;5093551;28;20165;-59
2023/03/06 10:27:46;;;;;;;17.02;15.18;;;8.80;99.90;;;;;;5093234;28;20693;-59
2023/03/06 10:30:27;;;;;;;15.85;14.27;;;8.90;99.90;;;;;;5093432;28;20177;-59
2023/03/06 10:32:57;;;;;;;14.43;12.95;;;8.90;99.90;;;;;;5093226;28;20645;-59
2023/03/06 10:35:47;;;;;;;14.50;13.07;;;9.00;99.90;;;;;;5093414;28;20260;-59
2023/03/06 10:38:36;;;;;;;15.55;13.82;;;9.20;99.90;;;;;;5087769;28;20757;-59
2023/03/06 10:41:07;;;;;;;15.35;13.80;;;9.30;99.90;;;;;;5093530;28;20255;-59
2023/03/06 10:43:34;;;;;;;16.23;14.68;;;9.40;99.90;;;;;;5093096;28;20315;-59
2023/03/06 10:46:01;;;;;;;16.45;14.75;;;9.50;99.90;;;;;;5093083;28;20643;-59
2023/03/06 10:48:28;;;;;;;16.55;14.75;;;9.40;99.90;;;;;;5093014;28;20170;-59
2023/03/06 10:51:23;;;;;;;15.90;14.30;;;9.40;99.90;;;;;;5092952;28;20658;-59
2023/03/06 10:54:00;;;;;;;16.13;14.43;;;9.60;99.90;;;;;;5093034;28;20671;-59
2023/03/06 10:56:33;;;;;;;16.20;14.45;;;9.50;99.90;;;;;;5093192;28;20335;-59
2023/03/06 10:59:13;;;;;;;15.50;13.90;;;9.70;99.90;;;;;;5092880;28;20200;-59
2023/03/06 11:01:44;;;;;;;15.52;13.93;;;9.80;99.90;;;;;;5093256;28;20269;-59
2023/03/06 11:04:22;;;;;;;15.75;14.05;;;9.90;99.90;;;;;;5093015;28;20174;-59
2023/03/06 11:07:07;;;;;;;16.13;14.13;;;10.00;99.90;;;;;;5092974;28;20181;-59
2023/03/06 11:09:34;;;;;;;17.17;15.35;;;9.80;99.90;;;;;;5092752;28;20700;-59
2023/03/06 11:12:33;;;;;;;17.48;15.18;;;9.80;99.90;;;;;;5092945;28;20284;-59
2023/03/06 11:15:14;;;;;;;16.50;14.73;;;9.70;99.90;;;;;;5089872;28;20178;-59
2023/03/06 11:18:00;;;;;;;16.77;14.98;;;9.50;99.90;;;;;;5092897;28;20177;-59
2023/03/06 11:20:41;;;;;;;15.85;14.00;;;9.50;99.90;;;;;;5093648;28;20189;-59
2023/03/06 11:23:15;;;;;;;15.80;14.30;;;9.70;99.90;;;;;;5096615;28;20244;-59
2023/03/06 11:25:50;;;;;;;17.38;15.50;;;9.80;99.90;;;;;;5096557;28;20206;-59
2023/03/06 11:28:27;;;;;;;18.42;15.45;;;9.50;99.90;;;;;;5096409;28;20177;-60
2023/03/06 11:31:29;;;;;;;20.08;16.23;;;9.40;99.90;;;;;;5096830;28;20170;-59
2023/03/06 11:34:06;;;;;;;16.85;15.15;;;9.40;99.90;;;;;;5090866;28;20730;-59
2023/03/06 11:37:09;;;;;;;16.85;15.13;;;9.50;99.90;;;;;;5096364;28;20162;-59
2023/03/06 11:39:49;;;;;;;18.23;15.95;;;9.60;99.90;;;;;;5096316;28;20198;-59
2023/03/06 11:42:20;;;;;;;17.15;14.98;;;9.50;99.90;;;;;;5096594;28;20169;-59
2023/03/06 11:44:52;;;;;;;15.38;13.77;;;9.60;99.90;;;;;;5096262;28;20166;-59
2023/03/06 11:47:45;;;;;;;16.77;15.13;;;9.60;99.90;;;;;;5096865;28;20164;-59
2023/03/06 11:50:18;;;;;;;16.95;15.35;;;9.70;99.90;;;;;;5096236;28;20255;-59
2023/03/06 11:52:56;;;;;;;16.42;14.80;;;9.80;99.90;;;;;;5096073;28;20502;-59
2023/03/06 11:55:49;;;;;;;15.10;13.43;;;10.00;99.90;;;;;;5095911;28;20304;-59
2023/03/06 11:58:33;;;;;;;14.63;13.02;;;9.90;99.90;;;;;;5095887;28;20202;-59
2023/03/06 12:01:10;;;;;;;14.95;13.38;;;9.80;99.90;;;;;;5095901;28;20174;-59
2023/03/06 12:03:54;;;;;;;16.83;14.98;;;9.90;99.90;;;;;;5095850;28;20165;-59
2023/03/06 12:06:41;;;;;;;18.27;14.68;;;9.90;99.90;;;;;;5096106;28;20628;-59
2023/03/06 12:09:13;;;;;;;17.52;15.05;;;10.10;99.90;;;;;;5095761;28;20628;-59
2023/03/06 12:11:59;;;;;;;15.02;13.55;;;10.10;99.90;;;;;;5095948;28;20573;-59
2023/03/06 12:15:01;;;;;;;15.90;13.50;;;10.10;99.90;;;;;;5095610;28;20223;-59
2023/03/06 12:17:53;;;;;;;14.50;12.93;;;10.10;99.90;;;;;;5095830;28;20647;-59
2023/03/06 12:20:30;;;;;;;15.18;13.57;;;10.10;99.90;;;;;;5095457;28;20193;-59
2023/03/06 12:23:45;;;;;;;15.23;13.63;;;9.90;99.90;;;;;;5095742;28;20687;-59
2023/03/06 12:26:38;;;;;;;15.57;13.82;;;9.80;99.90;;;;;;5095502;28;20201;-59
2023/03/06 12:29:07;;;;;;;17.60;15.75;;;9.80;99.90;;;;;;5095880;28;20180;-59
2023/03/06 12:31:41;;;;;;;17.27;15.43;;;10.00;99.90;;;;;;5095563;28;20263;-59
2023/03/06 12:34:31;;;;;;;19.42;17.05;;;10.20;99.90;;;;;;5094808;28;20239;-59
2023/03/06 12:37:27;;;;;;;18.58;16.48;;;10.40;99.90;;;;;;5095130;28;20166;-59
2023/03/06 12:40:27;;;;;;;17.85;15.50;;;10.20;99.90;;;;;;5089311;28;20262;-59
2023/03/06 12:42:53;;;;;;;17.85;16.05;;;10.10;99.90;;;;;;5078641;28;20280;-59
2023/03/06 12:45:38;;;;;;;18.10;16.20;;;10.10;99.90;;;;;;5095254;28;20261;-59
2023/03/06 12:48:14;;;;;;;18.33;16.00;;;10.20;99.90;;;;;;5095021;28;20170;-60
2023/03/06 12:50:44;;;;;;;18.90;16.90;;;10.40;99.90;;;;;;5095319;28;20516;-59